Time;durP1;ratioP1;P1;durP2;ratioP2;P2;SDS_P1;SDS_P2;PMS_P1;PMS_P2;Temp;Humidity;BMP_temperature;BMP_pressure;BME280_temperature;BME280_humidity;BME280_pressure;Samples;Min_cycle;Max_cycle;Signal;HPM_P1;HPM_P2
2020/12/10 00:09:34;;;;;;;13.95;9.40;;;4.20;84.50;;;;;;6157225;23;20283;-68
2020/12/10 00:12:03;;;;;;;13.65;10.65;;;4.20;84.40;;;;;;6156572;23;20167;-68
2020/12/10 00:15:06;;;;;;;12.75;9.50;;;4.20;83.20;;;;;;6157358;23;20148;-67
2020/12/10 00:20:55;;;;;;;12.80;9.88;;;4.10;84.40;;;;;;6156645;23;20135;-68
2020/12/10 00:26:43;;;;;;;12.25;9.98;;;4.00;85.00;;;;;;6156686;23;20468;-68
2020/12/10 00:29:19;;;;;;;11.93;9.48;;;4.10;85.20;;;;;;6157220;23;20156;-68
2020/12/10 00:31:46;;;;;;;12.98;9.50;;;4.00;85.60;;;;;;6156880;23;20159;-69
2020/12/10 00:37:35;;;;;;;15.80;10.93;;;4.10;85.20;;;;;;6156316;23;20675;-68
2020/12/10 00:40:27;;;;;;;13.23;9.55;;;4.10;85.00;;;;;;6156439;23;20262;-68
2020/12/10 00:42:53;;;;;;;12.93;9.38;;;4.10;85.00;;;;;;6156347;23;20530;-69
2020/12/10 00:46:04;;;;;;;13.52;11.18;;;4.10;84.80;;;;;;6156665;23;20207;-68
2020/12/10 00:48:31;;;;;;;14.35;10.57;;;4.10;84.90;;;;;;6156632;23;20155;-69
2020/12/10 00:51:10;;;;;;;13.02;10.38;;;4.10;84.80;;;;;;6156926;23;20152;-69
2020/12/10 00:56:58;;;;;;;10.85;8.98;;;4.10;84.80;;;;;;6156088;23;20229;-68
2020/12/10 01:00:18;;;;;;;13.73;9.68;;;4.10;85.00;;;;;;6156387;23;20194;-69
2020/12/10 01:02:45;;;;;;;12.93;9.93;;;4.10;85.20;;;;;;6156837;23;20243;-68
2020/12/10 01:05:51;;;;;;;16.00;10.93;;;4.10;84.90;;;;;;6156380;23;20587;-68
2020/12/10 01:11:41;;;;;;;11.13;8.95;;;4.00;85.30;;;;;;6156096;23;20143;-68
2020/12/10 01:14:07;;;;;;;11.57;9.73;;;4.00;84.40;;;;;;6156524;23;20148;-68
2020/12/10 01:16:35;;;;;;;13.45;10.13;;;4.00;84.30;;;;;;6155650;23;20189;-69
2020/12/10 01:22:24;;;;;;;11.85;9.60;;;4.00;85.30;;;;;;6155999;23;20196;-68
2020/12/10 01:28:13;;;;;;;13.23;9.15;;;4.00;85.40;;;;;;6156127;23;20155;-69
2020/12/10 01:30:41;;;;;;;9.55;8.20;;;3.90;85.50;;;;;;6156670;23;20509;-68
2020/12/10 01:33:07;;;;;;;10.48;8.93;;;3.90;85.80;;;;;;6155869;23;20171;-69
2020/12/10 01:36:15;;;;;;;12.65;9.32;;;4.00;86.00;;;;;;6156074;23;20184;-68
2020/12/10 01:38:43;;;;;;;12.65;8.68;;;3.90;86.00;;;;;;6155754;23;20469;-68
2020/12/10 01:41:13;;;;;;;12.45;9.32;;;3.90;86.00;;;;;;6156169;23;20171;-68
2020/12/10 01:47:02;;;;;;;12.50;9.20;;;4.00;86.10;;;;;;6155581;23;20198;-68
2020/12/10 01:49:28;;;;;;;11.05;9.77;;;4.00;86.00;;;;;;6156452;23;20237;-68
2020/12/10 01:51:55;;;;;;;16.30;10.88;;;4.00;86.10;;;;;;6154742;23;20168;-69
2020/12/10 01:54:22;;;;;;;12.05;8.88;;;4.00;86.20;;;;;;6156015;23;20152;-69
2020/12/10 02:00:12;;;;;;;11.82;8.95;;;4.00;86.00;;;;;;6156199;23;20155;-69
2020/12/10 02:06:19;;;;;;;12.57;8.80;;;4.00;86.30;;;;;;6156020;23;20144;-69
2020/12/10 02:12:09;;;;;;;12.05;9.65;;;3.90;86.70;;;;;;6156020;23;20151;-69
2020/12/10 02:14:38;;;;;;;10.77;8.45;;;3.90;86.10;;;;;;6155756;23;20168;-68
2020/12/10 02:17:06;;;;;;;11.68;8.73;;;3.90;85.80;;;;;;6155374;23;20538;-69
2020/12/10 02:19:33;;;;;;;15.05;11.38;;;3.80;86.00;;;;;;6155482;23;20156;-69
2020/12/10 02:22:06;;;;;;;11.95;9.75;;;3.80;86.00;;;;;;6156351;23;20148;-69
2020/12/10 02:24:34;;;;;;;10.95;8.63;;;3.80;86.00;;;;;;6155619;23;20595;-69
2020/12/10 02:27:01;;;;;;;10.88;8.15;;;3.80;86.20;;;;;;6156216;23;20634;-69
2020/12/10 02:36:12;;;;;;;10.77;8.50;;;3.90;86.30;;;;;;6155128;23;20190;-69
2020/12/10 02:42:41;;;;;;;12.63;8.55;;;3.80;86.20;;;;;;6165065;23;20535;-69
2020/12/10 02:45:07;;;;;;;11.43;7.93;;;3.70;86.30;;;;;;6155696;23;20202;-69
2020/12/10 02:47:34;;;;;;;11.18;8.93;;;3.80;86.70;;;;;;6155065;23;20163;-69
2020/12/10 02:50:01;;;;;;;11.55;9.02;;;3.70;86.50;;;;;;6155542;23;20163;-69
2020/12/10 02:55:49;;;;;;;13.10;9.70;;;3.70;86.60;;;;;;6155464;23;20182;-69
2020/12/10 02:58:17;;;;;;;12.65;9.10;;;3.70;86.70;;;;;;6155198;23;20160;-69
2020/12/10 03:04:12;;;;;;;9.35;7.88;;;3.70;86.40;;;;;;6154791;23;20185;-69
2020/12/10 03:06:38;;;;;;;11.23;8.35;;;3.80;86.30;;;;;;6154971;23;20603;-69
2020/12/10 03:12:27;;;;;;;12.48;10.00;;;3.70;87.10;;;;;;6154853;23;20240;-69
2020/12/10 03:15:20;;;;;;;10.23;7.72;;;3.70;87.10;;;;;;6155762;23;20190;-68
2020/12/10 03:17:46;;;;;;;10.90;8.93;;;3.70;87.30;;;;;;6155052;23;20148;-69
2020/12/10 03:20:13;;;;;;;12.40;9.27;;;3.70;87.10;;;;;;6155478;23;20152;-68
2020/12/10 03:26:01;;;;;;;10.85;8.30;;;3.70;86.90;;;;;;6154857;23;20139;-69
2020/12/10 03:31:50;;;;;;;12.18;9.82;;;3.70;86.50;;;;;;6155005;23;20169;-69
2020/12/10 03:37:38;;;;;;;12.68;9.65;;;3.70;86.80;;;;;;6154908;23;20163;-69
2020/12/10 03:40:05;;;;;;;10.60;9.00;;;3.70;86.70;;;;;;6154959;23;20178;-68
2020/12/10 03:42:32;;;;;;;10.02;8.55;;;3.70;86.90;;;;;;6154940;23;20159;-69
2020/12/10 03:45:33;;;;;;;11.52;9.32;;;3.70;86.60;;;;;;6155200;23;20148;-69
2020/12/10 03:48:00;;;;;;;12.90;10.70;;;3.70;86.70;;;;;;6154504;23;20163;-68
2020/12/10 03:50:32;;;;;;;11.98;10.13;;;3.70;86.90;;;;;;6155781;23;20152;-69
2020/12/10 03:56:21;;;;;;;13.45;9.45;;;3.70;86.80;;;;;;6154635;23;20230;-69
2020/12/10 03:58:49;;;;;;;13.30;10.30;;;3.70;86.70;;;;;;6154764;23;20171;-69
2020/12/10 04:01:17;;;;;;;12.85;9.57;;;3.70;86.90;;;;;;6155426;23;20164;-69
2020/12/10 04:03:44;;;;;;;10.50;8.77;;;3.70;86.70;;;;;;6155204;23;20159;-68
2020/12/10 04:06:23;;;;;;;12.23;9.23;;;3.70;86.40;;;;;;6155443;23;20619;-68
2020/12/10 04:08:49;;;;;;;13.57;9.65;;;3.70;86.50;;;;;;6155251;23;20203;-69
2020/12/10 04:11:16;;;;;;;14.07;11.20;;;3.70;86.20;;;;;;6155340;23;20152;-69
2020/12/10 04:13:42;;;;;;;11.38;8.70;;;3.70;87.10;;;;;;6154945;23;20222;-69
2020/12/10 04:16:09;;;;;;;12.48;9.10;;;3.70;86.30;;;;;;6157615;23;20534;-68
2020/12/10 04:21:59;;;;;;;12.25;8.80;;;3.60;86.00;;;;;;6156706;23;20155;-69
2020/12/10 04:24:25;;;;;;;11.05;8.73;;;3.60;86.10;;;;;;6156811;23;20148;-69
2020/12/10 04:27:45;;;;;;;12.57;8.95;;;3.60;86.30;;;;;;6156838;23;20152;-69
2020/12/10 04:30:12;;;;;;;13.93;8.60;;;3.50;87.10;;;;;;6157026;23;20167;-69
2020/12/10 04:32:38;;;;;;;12.13;8.93;;;3.60;87.30;;;;;;6156607;23;20646;-69
2020/12/10 04:38:28;;;;;;;11.27;7.93;;;3.50;87.30;;;;;;6156495;23;20159;-68
2020/12/10 04:41:22;;;;;;;12.43;8.75;;;3.50;86.80;;;;;;6157342;23;20152;-69
2020/12/10 04:47:13;;;;;;;10.05;8.30;;;3.40;87.00;;;;;;6156539;23;20198;-69
2020/12/10 04:49:51;;;;;;;11.90;9.63;;;3.40;87.30;;;;;;6156835;23;20555;-69
2020/12/10 04:52:19;;;;;;;12.30;10.18;;;3.40;87.60;;;;;;6155778;23;20174;-68
2020/12/10 04:54:50;;;;;;;11.60;8.43;;;3.40;87.60;;;;;;6157310;23;20157;-69
2020/12/10 04:57:17;;;;;;;13.20;10.35;;;3.40;87.70;;;;;;6156212;23;20639;-69
2020/12/10 04:59:44;;;;;;;11.88;9.23;;;3.40;87.70;;;;;;6156672;23;20179;-69
2020/12/10 05:05:33;;;;;;;11.70;9.50;;;3.40;87.30;;;;;;6156425;23;20239;-68
2020/12/10 05:08:04;;;;;;;10.13;8.55;;;3.40;86.50;;;;;;6156959;23;20503;-69
2020/12/10 05:17:16;;;;;;;10.43;8.13;;;3.30;87.40;;;;;;6156646;23;20490;-69
2020/12/10 05:19:43;;;;;;;13.70;9.05;;;3.30;87.50;;;;;;6155809;23;20183;-69
2020/12/10 05:22:11;;;;;;;12.65;9.60;;;3.20;86.70;;;;;;6156570;23;20183;-69
2020/12/10 05:28:00;;;;;;;17.55;9.85;;;3.00;86.90;;;;;;6156002;23;20140;-69
2020/12/10 05:30:26;;;;;;;20.02;10.75;;;3.00;87.20;;;;;;6156428;23;20580;-68
2020/12/10 05:32:54;;;;;;;23.45;12.82;;;2.90;87.50;;;;;;6156371;23;20171;-69
2020/12/10 05:42:06;;;;;;;14.77;10.70;;;3.00;88.60;;;;;;6155890;23;20474;-68
2020/12/10 05:47:56;;;;;;;12.05;9.30;;;3.00;89.10;;;;;;6155796;23;20594;-69
2020/12/10 05:54:18;;;;;;;15.52;9.65;;;3.10;89.20;;;;;;6155423;23;20186;-69
2020/12/10 06:03:21;;;;;;;10.88;9.20;;;3.20;89.40;;;;;;6155364;23;20206;-68
2020/12/10 06:06:20;;;;;;;13.13;9.57;;;3.20;89.20;;;;;;6156006;23;20235;-69
2020/12/10 06:08:50;;;;;;;11.85;9.20;;;3.20;89.00;;;;;;6155483;23;20243;-68
2020/12/10 06:14:53;;;;;;;13.05;10.23;;;3.20;88.80;;;;;;6156241;23;20139;-68
2020/12/10 06:17:20;;;;;;;12.85;9.93;;;3.20;88.70;;;;;;6155888;23;20300;-69
2020/12/10 06:19:48;;;;;;;12.90;9.65;;;3.20;88.70;;;;;;6155894;23;20210;-69
2020/12/10 06:35:44;;;;;;;13.27;9.93;;;3.10;88.60;;;;;;6155945;23;20198;-69
2020/12/10 06:38:12;;;;;;;15.63;9.60;;;3.10;88.60;;;;;;6156100;23;20152;-69
2020/12/10 06:41:02;;;;;;;15.70;10.20;;;3.10;88.90;;;;;;6155300;23;20195;-69
2020/12/10 06:43:36;;;;;;;13.30;9.55;;;3.10;88.80;;;;;;6155890;23;20156;-69
2020/12/10 06:46:03;;;;;;;14.85;10.90;;;3.10;88.50;;;;;;6128889;23;20163;-69
2020/12/10 06:49:09;;;;;;;17.17;11.75;;;3.20;88.80;;;;;;6155235;23;20195;-69
2020/12/10 06:51:36;;;;;;;11.35;9.25;;;3.20;89.10;;;;;;6154817;23;20156;-69
2020/12/10 07:01:38;;;;;;;13.48;9.70;;;3.20;88.60;;;;;;6154738;23;20148;-69
2020/12/10 07:11:05;;;;;;;13.23;9.95;;;3.20;88.60;;;;;;6007557;23;20704;-68
2020/12/10 07:13:36;;;;;;;16.15;11.02;;;3.10;88.50;;;;;;6089361;23;20167;-69
2020/12/10 07:16:03;;;;;;;15.18;11.05;;;3.10;88.80;;;;;;6155280;23;20230;-68
2020/12/10 07:18:29;;;;;;;15.45;12.00;;;3.10;89.10;;;;;;6145704;23;20159;-69
2020/12/10 07:20:56;;;;;;;16.50;11.25;;;3.10;89.00;;;;;;6153097;23;20164;-69
2020/12/10 07:23:22;;;;;;;21.73;11.45;;;3.10;88.60;;;;;;6152982;23;20168;-69
2020/12/10 07:25:49;;;;;;;17.55;11.35;;;3.10;88.40;;;;;;6152759;23;20514;-68
2020/12/10 07:28:16;;;;;;;20.58;12.07;;;3.10;88.50;;;;;;6153827;23;20164;-69
2020/12/10 07:30:43;;;;;;;17.20;10.80;;;3.10;88.60;;;;;;6153137;23;20163;-68
2020/12/10 07:33:09;;;;;;;17.23;11.48;;;3.20;88.70;;;;;;6153527;23;20230;-68
2020/12/10 07:35:38;;;;;;;16.90;12.00;;;3.20;88.90;;;;;;6153445;23;20167;-68
2020/12/10 07:38:08;;;;;;;15.68;10.27;;;3.20;89.10;;;;;;6153536;23;20168;-68
2020/12/10 07:40:35;;;;;;;17.60;12.18;;;3.30;89.00;;;;;;6153440;23;20179;-68
2020/12/10 07:43:06;;;;;;;18.50;13.13;;;3.30;88.90;;;;;;6152559;23;20195;-68
2020/12/10 07:45:37;;;;;;;18.08;11.82;;;3.30;89.00;;;;;;6149802;23;20167;-69
2020/12/10 07:48:05;;;;;;;17.88;13.43;;;3.30;88.30;;;;;;6154210;23;20638;-68
2020/12/10 07:50:35;;;;;;;21.10;12.60;;;3.30;88.10;;;;;;6155268;23;20615;-67
2020/12/10 07:53:04;;;;;;;24.15;15.10;;;3.30;88.60;;;;;;6155399;23;20156;-67
2020/12/10 07:55:34;;;;;;;20.40;14.55;;;3.30;88.40;;;;;;6155312;23;20160;-67
2020/12/10 07:58:18;;;;;;;20.15;15.15;;;3.30;88.70;;;;;;6156273;23;20258;-67
2020/12/10 08:00:47;;;;;;;30.15;16.67;;;3.30;88.70;;;;;;6156095;23;20148;-67
2020/12/10 08:06:31;;;;;;;22.77;14.15;;;3.40;88.60;;;;;;6156289;23;20603;-67
2020/12/10 08:09:27;;;;;;;23.55;14.98;;;3.50;88.60;;;;;;6156453;23;20152;-67
2020/12/10 08:11:55;;;;;;;17.25;11.48;;;3.50;88.90;;;;;;6156432;23;20148;-67
2020/12/10 08:17:33;;;;;;;19.67;13.75;;;3.70;88.60;;;;;;6154322;23;20209;-68
2020/12/10 08:20:00;;;;;;;16.55;12.48;;;3.70;88.40;;;;;;6154866;23;20148;-68
2020/12/10 08:22:33;;;;;;;18.40;12.90;;;3.80;88.40;;;;;;6157048;23;20239;-68
2020/12/10 08:25:00;;;;;;;17.40;12.10;;;3.80;88.20;;;;;;6156511;23;20152;-68
2020/12/10 08:27:27;;;;;;;19.17;12.90;;;3.90;87.70;;;;;;6156490;23;20635;-68
2020/12/10 08:30:01;;;;;;;16.17;10.70;;;3.90;87.20;;;;;;6156567;23;20163;-68
2020/12/10 08:32:28;;;;;;;17.30;11.77;;;4.00;87.10;;;;;;6157113;23;20239;-68
2020/12/10 08:35:41;;;;;;;19.15;12.88;;;4.00;86.60;;;;;;6157465;23;20148;-67
2020/12/10 08:38:10;;;;;;;15.95;11.35;;;4.00;86.40;;;;;;6157432;23;20152;-68
2020/12/10 08:40:39;;;;;;;29.55;12.02;;;4.00;86.00;;;;;;6155278;23;20156;-68
2020/12/10 08:43:10;;;;;;;15.60;11.15;;;3.90;86.00;;;;;;6155820;23;20465;-69
2020/12/10 08:45:43;;;;;;;17.30;11.80;;;3.90;86.20;;;;;;6155509;23;20170;-68
2020/12/10 08:51:40;;;;;;;17.08;11.32;;;3.90;86.70;;;;;;6155778;23;20606;-68
2020/12/10 08:54:06;;;;;;;21.45;12.25;;;3.90;86.30;;;;;;6156911;23;20178;-68
2020/12/10 08:59:55;;;;;;;19.48;13.60;;;3.90;85.60;;;;;;6155902;23;20595;-68
2020/12/10 09:02:22;;;;;;;18.13;12.90;;;3.90;86.30;;;;;;6155862;23;20222;-68
2020/12/10 09:05:04;;;;;;;15.13;11.20;;;3.90;86.70;;;;;;6156620;23;20156;-68
2020/12/10 09:07:35;;;;;;;15.73;11.38;;;4.00;86.70;;;;;;6156708;23;20191;-68
2020/12/10 09:13:24;;;;;;;16.42;12.02;;;4.10;86.80;;;;;;6154902;23;20155;-68
2020/12/10 09:15:51;;;;;;;16.77;12.27;;;4.20;86.80;;;;;;6156016;23;20190;-68
2020/12/10 09:21:42;;;;;;;17.02;11.13;;;4.50;86.00;;;;;;6156168;23;20266;-67
2020/12/10 09:24:09;;;;;;;17.27;13.13;;;4.60;85.80;;;;;;6155738;23;20156;-67
2020/12/10 09:26:38;;;;;;;15.75;10.55;;;4.70;85.70;;;;;;6155859;23;20168;-67
2020/12/10 09:29:05;;;;;;;14.63;11.25;;;4.90;85.50;;;;;;6156097;23;20167;-67
2020/12/10 09:31:52;;;;;;;14.60;12.35;;;5.10;84.70;;;;;;6156143;23;20288;-67
2020/12/10 09:34:19;;;;;;;19.63;13.48;;;5.20;83.90;;;;;;6156602;23;20224;-68
2020/12/10 09:43:30;;;;;;;15.60;11.85;;;5.60;81.40;;;;;;6154650;23;20158;-68
2020/12/10 09:46:01;;;;;;;20.08;13.15;;;5.90;82.10;;;;;;6154592;23;20255;-68
2020/12/10 09:48:28;;;;;;;15.57;11.90;;;6.10;79.70;;;;;;6156587;23;20459;-67
2020/12/10 09:51:46;;;;;;;15.25;12.70;;;6.20;79.70;;;;;;6155587;23;20154;-68
2020/12/10 09:54:19;;;;;;;18.88;13.52;;;6.20;79.40;;;;;;6155961;23;20148;-68
2020/12/10 10:00:17;;;;;;;13.30;10.38;;;6.10;78.50;;;;;;6126619;23;20192;-67
2020/12/10 10:06:09;;;;;;;14.82;11.32;;;5.90;76.90;;;;;;6125232;23;20231;-69
2020/12/10 10:08:36;;;;;;;16.08;11.85;;;5.90;76.90;;;;;;6126063;23;20216;-68
2020/12/10 10:11:10;;;;;;;15.82;11.57;;;5.90;77.00;;;;;;6126128;23;20690;-68
2020/12/10 10:13:37;;;;;;;16.02;12.18;;;6.00;77.70;;;;;;6125710;23;20164;-68
2020/12/10 10:16:05;;;;;;;15.43;11.98;;;5.90;78.20;;;;;;6125655;23;20211;-67
2020/12/10 10:18:32;;;;;;;14.20;12.25;;;5.90;78.40;;;;;;6125156;23;20169;-67
2020/12/10 10:20:58;;;;;;;15.65;11.45;;;5.90;78.10;;;;;;6125465;23;20175;-68
2020/12/10 10:23:26;;;;;;;15.68;11.48;;;5.90;78.10;;;;;;6125920;23;20164;-67
2020/12/10 10:25:53;;;;;;;14.57;12.00;;;6.00;78.60;;;;;;6125881;23;20247;-68
2020/12/10 10:28:20;;;;;;;15.73;11.57;;;6.10;78.70;;;;;;6126275;23;20171;-68
2020/12/10 10:30:48;;;;;;;17.60;13.02;;;6.20;78.50;;;;;;6126302;23;20160;-68
2020/12/10 10:36:38;;;;;;;15.75;11.68;;;6.40;77.20;;;;;;6125967;23;20218;-67
2020/12/10 10:39:05;;;;;;;15.48;10.20;;;6.40;76.40;;;;;;6126216;23;20478;-67
2020/12/10 10:41:43;;;;;;;10.93;9.10;;;6.40;75.40;;;;;;6126186;23;20153;-68
2020/12/10 10:44:10;;;;;;;15.13;11.77;;;6.50;75.40;;;;;;6125386;23;20160;-67
2020/12/10 10:46:37;;;;;;;14.38;10.77;;;6.50;74.90;;;;;;6125537;23;20172;-67
2020/12/10 10:49:05;;;;;;;15.05;11.85;;;6.40;74.60;;;;;;6125383;23;20161;-68
2020/12/10 10:51:32;;;;;;;14.45;11.90;;;6.40;74.10;;;;;;6125472;23;20173;-67
2020/12/10 10:57:21;;;;;;;13.35;9.80;;;6.30;73.70;;;;;;6126600;23;20191;-68
2020/12/10 10:59:48;;;;;;;16.58;12.50;;;6.30;74.50;;;;;;6155133;23;20171;-68
2020/12/10 11:05:39;;;;;;;14.23;10.13;;;6.30;73.90;;;;;;6155651;23;20147;-68
2020/12/10 11:09:01;;;;;;;13.73;11.70;;;6.40;73.80;;;;;;6155701;23;20148;-68
2020/12/10 11:11:27;;;;;;;12.05;9.20;;;6.30;73.40;;;;;;6155692;23;20159;-68
2020/12/10 11:14:03;;;;;;;16.02;11.45;;;6.30;73.80;;;;;;6154804;23;20246;-68
2020/12/10 11:16:30;;;;;;;14.75;10.88;;;6.20;73.50;;;;;;6155856;23;20483;-68
2020/12/10 11:19:10;;;;;;;13.25;10.45;;;6.20;74.30;;;;;;6155954;23;20152;-68
2020/12/10 11:21:37;;;;;;;14.05;11.00;;;6.20;74.10;;;;;;6155692;23;20151;-68
2020/12/10 11:24:03;;;;;;;13.40;9.52;;;6.10;74.30;;;;;;6156023;23;20159;-68
2020/12/10 11:29:53;;;;;;;14.52;10.55;;;6.10;74.10;;;;;;6156660;23;20579;-68
2020/12/10 11:32:19;;;;;;;15.07;11.18;;;6.10;74.00;;;;;;6157145;23;20168;-68
2020/12/10 11:34:47;;;;;;;11.75;10.40;;;6.10;74.50;;;;;;6157178;23;20167;-68
2020/12/10 11:40:36;;;;;;;11.38;9.25;;;6.00;74.80;;;;;;6155863;23;20178;-68
2020/12/10 11:43:03;;;;;;;13.63;9.60;;;6.00;74.40;;;;;;6155956;23;20223;-69
2020/12/10 11:45:31;;;;;;;13.98;9.68;;;6.10;74.00;;;;;;6156025;23;20206;-68
2020/12/10 11:48:02;;;;;;;13.75;10.57;;;6.00;73.50;;;;;;6156435;23;20622;-68
2020/12/10 11:50:31;;;;;;;13.00;10.43;;;6.10;74.00;;;;;;6156426;23;20175;-67
2020/12/10 11:53:24;;;;;;;14.35;10.07;;;6.10;73.70;;;;;;6156963;23;20152;-69
2020/12/10 11:55:51;;;;;;;14.50;11.07;;;6.10;73.30;;;;;;6156587;23;20166;-68
2020/12/10 11:58:22;;;;;;;14.80;10.30;;;6.10;73.10;;;;;;6156672;23;20615;-68
2020/12/10 12:00:51;;;;;;;13.55;10.27;;;6.10;73.40;;;;;;6157143;23;20171;-68
2020/12/10 12:03:32;;;;;;;13.18;9.15;;;6.10;72.60;;;;;;6157780;23;20163;-68
2020/12/10 12:09:22;;;;;;;14.25;10.23;;;6.10;72.20;;;;;;6155862;23;20194;-68
2020/12/10 12:11:48;;;;;;;12.95;9.68;;;6.00;72.50;;;;;;6157231;23;20222;-68
2020/12/10 12:17:39;;;;;;;13.35;10.50;;;6.00;73.30;;;;;;6156634;23;20237;-68
2020/12/10 12:20:06;;;;;;;12.23;10.02;;;6.00;73.20;;;;;;6157164;23;20193;-68
2020/12/10 12:25:55;;;;;;;12.55;9.85;;;5.90;73.50;;;;;;6157293;23;20135;-68
2020/12/10 12:28:25;;;;;;;13.32;10.55;;;5.90;73.60;;;;;;6156687;23;20751;-68
2020/12/10 12:30:53;;;;;;;14.23;10.10;;;5.80;73.90;;;;;;6156834;23;20163;-68
2020/12/10 12:33:42;;;;;;;15.15;10.30;;;5.80;73.70;;;;;;6157086;23;20159;-69
2020/12/10 12:36:09;;;;;;;18.90;11.15;;;5.80;74.10;;;;;;6156583;23;20160;-68
2020/12/10 12:41:57;;;;;;;18.42;12.18;;;5.80;74.80;;;;;;6157156;23;20202;-68
2020/12/10 12:45:05;;;;;;;14.27;10.60;;;5.80;75.20;;;;;;6156781;23;20230;-68
2020/12/10 12:47:32;;;;;;;13.05;10.00;;;5.80;74.70;;;;;;6155140;23;20218;-68
2020/12/10 12:49:59;;;;;;;15.27;10.70;;;5.80;74.90;;;;;;6156348;23;20206;-68
2020/12/10 12:52:26;;;;;;;12.57;9.60;;;5.80;74.50;;;;;;6156440;23;20152;-68
2020/12/10 12:54:53;;;;;;;13.45;9.82;;;5.80;74.10;;;;;;6156154;23;20164;-68
2020/12/10 12:57:26;;;;;;;11.68;9.68;;;5.80;74.10;;;;;;6156604;23;20182;-68
2020/12/10 12:59:53;;;;;;;13.85;10.30;;;5.80;74.00;;;;;;6127491;23;20159;-68
2020/12/10 13:03:08;;;;;;;14.02;10.00;;;5.80;74.60;;;;;;6126857;23;20149;-68
2020/12/10 13:05:36;;;;;;;13.57;10.05;;;5.80;74.70;;;;;;6125938;23;20232;-68
2020/12/10 13:08:03;;;;;;;13.55;9.98;;;5.80;74.30;;;;;;6127324;23;20184;-68
2020/12/10 13:10:30;;;;;;;12.75;8.65;;;5.80;74.70;;;;;;6126672;23;20248;-68
2020/12/10 13:16:27;;;;;;;12.95;10.07;;;5.80;74.90;;;;;;6126971;23;20160;-67
2020/12/10 13:22:16;;;;;;;14.52;10.27;;;5.70;75.90;;;;;;6125833;23;20155;-68
2020/12/10 13:24:43;;;;;;;13.45;9.60;;;5.70;76.00;;;;;;6126747;23;20513;-68
2020/12/10 13:27:10;;;;;;;10.82;8.85;;;5.70;75.10;;;;;;6127129;23;20161;-68
2020/12/10 13:29:37;;;;;;;13.77;10.43;;;5.60;74.70;;;;;;6126676;23;20525;-68
2020/12/10 13:32:04;;;;;;;12.13;10.05;;;5.60;75.00;;;;;;6126450;23;20164;-68
2020/12/10 13:34:31;;;;;;;13.50;9.50;;;5.60;75.30;;;;;;6126878;23;20160;-68
2020/12/10 13:36:57;;;;;;;11.35;8.95;;;5.60;76.20;;;;;;6126748;23;20196;-68
2020/12/10 13:39:26;;;;;;;15.60;10.43;;;5.50;75.70;;;;;;6125619;23;20160;-68
2020/12/10 13:41:53;;;;;;;11.10;8.90;;;5.50;75.60;;;;;;6126723;23;20476;-68
2020/12/10 13:44:21;;;;;;;16.83;11.13;;;5.50;75.10;;;;;;6126209;23;20200;-68
2020/12/10 13:47:42;;;;;;;17.55;10.80;;;5.50;75.10;;;;;;6126798;23;20166;-68
2020/12/10 13:50:09;;;;;;;14.45;9.68;;;5.50;75.10;;;;;;6126083;23;20176;-68
2020/12/10 13:52:36;;;;;;;14.77;11.45;;;5.50;75.30;;;;;;6125833;23;20207;-68
2020/12/10 13:55:07;;;;;;;12.02;9.93;;;5.40;75.70;;;;;;6126418;23;20164;-68
2020/12/10 13:57:42;;;;;;;14.80;11.02;;;5.40;76.00;;;;;;6127575;23;20231;-68
2020/12/10 14:00:09;;;;;;;16.02;11.15;;;5.40;75.80;;;;;;6126336;23;20476;-67
2020/12/10 14:02:36;;;;;;;13.40;10.75;;;5.30;75.70;;;;;;6125269;23;20152;-67
2020/12/10 14:05:04;;;;;;;13.85;11.43;;;5.30;75.80;;;;;;6126139;23;20659;-67
2020/12/10 14:07:30;;;;;;;14.45;11.07;;;5.30;76.60;;;;;;6125994;23;20161;-67
2020/12/10 14:10:17;;;;;;;14.35;10.88;;;5.30;76.80;;;;;;6126322;23;20149;-67
2020/12/10 14:12:44;;;;;;;14.57;11.15;;;5.20;76.70;;;;;;6125605;23;20157;-68
2020/12/10 14:15:13;;;;;;;17.30;12.23;;;5.20;76.40;;;;;;6126105;23;20165;-68
2020/12/10 14:17:39;;;;;;;15.63;11.30;;;5.20;77.20;;;;;;6126450;23;20220;-67
2020/12/10 14:23:27;;;;;;;18.23;13.57;;;5.10;77.80;;;;;;6126037;23;20478;-68
2020/12/10 14:25:55;;;;;;;14.77;11.85;;;5.10;77.80;;;;;;6125424;23;20164;-67
2020/12/10 14:28:22;;;;;;;13.65;10.05;;;5.10;77.50;;;;;;6125163;23;20219;-68
2020/12/10 14:34:45;;;;;;;12.73;9.30;;;5.00;77.20;;;;;;6125897;23;20140;-68
2020/12/10 14:37:13;;;;;;;13.30;9.27;;;5.00;75.90;;;;;;6125834;23;20215;-67
2020/12/10 14:43:16;;;;;;;10.55;8.20;;;4.80;74.70;;;;;;6126588;23;20199;-67
2020/12/10 14:45:44;;;;;;;10.35;7.60;;;4.70;74.60;;;;;;6126244;23;20168;-68
2020/12/10 14:48:13;;;;;;;9.63;7.50;;;4.70;75.50;;;;;;6126630;23;20525;-68
2020/12/10 14:51:01;;;;;;;12.35;9.27;;;4.60;74.40;;;;;;6125629;23;20160;-68
2020/12/10 14:53:28;;;;;;;12.63;8.98;;;4.50;73.60;;;;;;6126679;23;20155;-68
2020/12/10 14:55:55;;;;;;;11.73;8.85;;;4.50;73.70;;;;;;6126229;23;20231;-68
2020/12/10 15:02:08;;;;;;;10.75;8.05;;;4.60;73.90;;;;;;6155156;23;20175;-70
2020/12/10 15:08:15;;;;;;;10.35;8.25;;;4.50;74.10;;;;;;6155115;23;20135;-68
2020/12/10 15:10:42;;;;;;;11.40;9.15;;;4.50;74.50;;;;;;6155446;23;20239;-68
2020/12/10 15:13:09;;;;;;;9.95;6.78;;;4.40;74.60;;;;;;6155218;23;20175;-68
2020/12/10 15:15:36;;;;;;;11.02;9.45;;;4.40;74.90;;;;;;6154894;23;20160;-68
2020/12/10 15:18:07;;;;;;;11.48;8.55;;;4.40;74.60;;;;;;6154823;23;20184;-68
2020/12/10 15:20:34;;;;;;;11.70;8.55;;;4.40;74.50;;;;;;6154992;23;20160;-68
2020/12/10 15:23:09;;;;;;;11.82;10.20;;;4.40;74.50;;;;;;6155321;23;20155;-68
2020/12/10 15:25:36;;;;;;;20.42;13.40;;;4.30;74.10;;;;;;6155595;23;20147;-68
2020/12/10 15:28:03;;;;;;;23.10;14.73;;;4.40;74.50;;;;;;6155043;23;20163;-67
2020/12/10 15:34:09;;;;;;;14.93;10.38;;;4.40;74.60;;;;;;6155715;23;20136;-68
2020/12/10 15:36:37;;;;;;;11.45;8.40;;;4.30;75.00;;;;;;6155609;23;20496;-68
2020/12/10 15:39:06;;;;;;;11.65;8.45;;;4.30;75.10;;;;;;6155474;23;20148;-68
2020/12/10 15:41:44;;;;;;;11.00;7.72;;;4.30;76.00;;;;;;6154819;23;20506;-68
2020/12/10 15:44:11;;;;;;;9.15;7.50;;;4.30;74.90;;;;;;6155903;23;20466;-68
2020/12/10 15:50:00;;;;;;;9.32;7.57;;;4.30;74.90;;;;;;6154454;23;20147;-68
2020/12/10 15:52:28;;;;;;;13.93;10.90;;;4.40;74.20;;;;;;6154432;23;20167;-68
2020/12/10 15:54:58;;;;;;;14.88;10.38;;;4.40;74.60;;;;;;6154349;23;20514;-68
2020/12/10 15:57:25;;;;;;;13.57;9.20;;;4.40;75.00;;;;;;6153898;23;20234;-68
2020/12/10 16:00:36;;;;;;;14.65;11.02;;;4.30;75.60;;;;;;6155366;23;20183;-68
2020/12/10 16:03:02;;;;;;;17.75;10.13;;;4.30;76.00;;;;;;6123456;23;20164;-68
2020/12/10 16:05:30;;;;;;;9.98;8.02;;;4.30;75.50;;;;;;6125400;23;20519;-68
2020/12/10 16:07:57;;;;;;;11.35;9.73;;;4.30;73.60;;;;;;6125789;23;20165;-68
2020/12/10 16:10:24;;;;;;;11.48;9.27;;;4.20;74.60;;;;;;6125577;23;20161;-68
2020/12/10 16:12:51;;;;;;;9.40;6.93;;;4.10;73.90;;;;;;6127279;23;20167;-68
2020/12/10 16:15:17;;;;;;;9.90;7.55;;;4.10;74.00;;;;;;6127205;23;20199;-68
2020/12/10 16:17:44;;;;;;;12.00;8.98;;;4.10;74.30;;;;;;6127203;23;20254;-68
2020/12/10 16:20:12;;;;;;;12.07;8.38;;;4.10;74.80;;;;;;6127107;23;20162;-68
2020/12/10 16:22:41;;;;;;;9.90;7.30;;;4.10;75.20;;;;;;6126701;23;20215;-68
2020/12/10 16:25:08;;;;;;;13.75;9.07;;;4.10;75.20;;;;;;6126646;23;20164;-68
2020/12/10 16:27:35;;;;;;;11.07;7.95;;;4.10;74.90;;;;;;6126373;23;20497;-68
2020/12/10 16:30:10;;;;;;;13.18;8.85;;;4.20;74.80;;;;;;6126472;23;20164;-68
2020/12/10 16:32:36;;;;;;;11.60;9.00;;;4.20;75.10;;;;;;6127039;23;20171;-67
2020/12/10 16:35:03;;;;;;;14.52;11.05;;;4.20;75.00;;;;;;6126997;23;20608;-68
2020/12/10 16:37:32;;;;;;;17.70;12.65;;;4.20;75.40;;;;;;6126929;23;20232;-68
2020/12/10 16:39:59;;;;;;;17.25;11.48;;;4.10;75.90;;;;;;6126700;23;20273;-69
2020/12/10 16:42:26;;;;;;;16.38;12.60;;;4.20;76.40;;;;;;6126028;23;20211;-68
2020/12/10 16:44:53;;;;;;;18.70;11.50;;;4.10;76.60;;;;;;6126160;23;20607;-68
2020/12/10 16:47:21;;;;;;;18.08;14.02;;;4.10;77.30;;;;;;6126877;23;20193;-68
2020/12/10 16:49:50;;;;;;;18.73;13.50;;;4.10;77.50;;;;;;6127062;23;20164;-68
2020/12/10 16:52:19;;;;;;;17.35;13.70;;;4.10;78.20;;;;;;6126540;23;20243;-68
2020/12/10 16:54:45;;;;;;;24.52;14.65;;;4.10;78.50;;;;;;6126422;23;20173;-68
2020/12/10 16:57:13;;;;;;;22.45;14.98;;;4.10;78.70;;;;;;6126100;23;20224;-68
2020/12/10 16:59:40;;;;;;;20.77;15.05;;;4.10;78.80;;;;;;6126225;23;20247;-68
2020/12/10 17:02:49;;;;;;;20.20;14.70;;;4.10;78.60;;;;;;6145922;23;20188;-67
2020/12/10 17:05:22;;;;;;;20.13;12.20;;;4.00;78.60;;;;;;6156519;23;20156;-69
2020/12/10 17:07:49;;;;;;;29.65;15.68;;;4.00;79.10;;;;;;6153636;23;20244;-68
2020/12/10 17:13:38;;;;;;;20.80;12.80;;;4.10;79.90;;;;;;6153931;23;20178;-68
2020/12/10 17:16:07;;;;;;;32.50;19.33;;;4.10;79.80;;;;;;6156222;23;20152;-68